Time;durP1;ratioP1;P1;durP2;ratioP2;P2;SDS_P1;SDS_P2;PMS_P1;PMS_P2;Temp;Humidity;BMP_temperature;BMP_pressure;BME280_temperature;BME280_humidity;BME280_pressure;Samples;Min_cycle;Max_cycle;Signal;HPM_P1;HPM_P2
2022/04/11 00:00:17;;;;;;;6.63;5.72;;;;;;;;;;10264947;28;20080;-60
2022/04/11 00:05:16;;;;;;;7.10;6.32;;;;;;;;;;10261236;28;20081;-60
2022/04/11 00:10:16;;;;;;;8.23;6.53;;;;;;;;;;10265146;28;20146;-60
2022/04/11 00:15:14;;;;;;;6.88;6.22;;;;;;;;;;10263873;28;20095;-59
2022/04/11 00:20:13;;;;;;;8.10;6.20;;;;;;;;;;10254273;28;20080;-59
2022/04/11 00:25:11;;;;;;;6.32;5.20;;;;;;;;;;10263238;28;20075;-59
2022/04/11 00:30:12;;;;;;;5.10;4.70;;;;;;;;;;10264065;28;20064;-59
2022/04/11 00:35:11;;;;;;;5.45;4.97;;;;;;;;;;10254972;28;20083;-59
2022/04/11 00:40:10;;;;;;;5.97;5.38;;;;;;;;;;10278236;28;20536;-60
2022/04/11 00:45:08;;;;;;;5.47;4.97;;;;;;;;;;10274162;28;20740;-60
2022/04/11 00:50:09;;;;;;;5.60;5.00;;;;;;;;;;10255575;28;20068;-60
2022/04/11 00:55:08;;;;;;;5.47;5.00;;;;;;;;;;10263707;28;20065;-59
2022/04/11 01:00:07;;;;;;;6.88;5.65;;;;;;;;;;10263889;28;20486;-59
2022/04/11 01:05:09;;;;;;;5.70;5.00;;;;;;;;;;10260710;28;20086;-59
2022/04/11 01:10:08;;;;;;;5.30;4.80;;;;;;;;;;10259497;28;20174;-59
2022/04/11 01:15:07;;;;;;;5.57;4.90;;;;;;;;;;10272639;28;20071;-59
2022/04/11 01:20:11;;;;;;;4.78;4.38;;;;;;;;;;10272991;28;20204;-59
2022/04/11 01:25:11;;;;;;;6.43;4.60;;;;;;;;;;10261169;28;20085;-59
2022/04/11 01:30:12;;;;;;;4.90;4.40;;;;;;;;;;10261529;28;20077;-60
2022/04/11 01:35:24;;;;;;;5.03;4.53;;;;;;;;;;10264135;28;20520;-60
2022/04/11 01:40:26;;;;;;;4.60;4.00;;;;;;;;;;10260403;28;20072;-60
2022/04/11 01:45:24;;;;;;;5.30;4.55;;;;;;;;;;10268349;28;20084;-60
2022/04/11 01:50:23;;;;;;;4.53;4.13;;;;;;;;;;10268411;28;20505;-60
2022/04/11 01:55:21;;;;;;;5.00;4.60;;;;;;;;;;10267624;28;20088;-60
2022/04/11 02:00:21;;;;;;;4.68;4.28;;;;;;;;;;10267833;28;20422;-60
2022/04/11 02:05:20;;;;;;;5.10;4.60;;;;;;;;;;10267877;28;20097;-60
2022/04/11 02:10:19;;;;;;;3.70;3.40;;;;;;;;;;10267129;28;20425;-61
2022/04/11 02:15:17;;;;;;;6.55;3.85;;;;;;;;;;10265119;28;20064;-60
2022/04/11 02:20:18;;;;;;;3.67;3.38;;;;;;;;;;10267656;28;20048;-60
2022/04/11 02:25:18;;;;;;;4.22;3.85;;;;;;;;;;10266155;28;20087;-60
2022/04/11 02:30:17;;;;;;;4.40;4.00;;;;;;;;;;10265356;28;20088;-61
2022/04/11 02:35:18;;;;;;;3.03;2.75;;;;;;;;;;10266520;28;20470;-61
2022/04/11 02:40:17;;;;;;;3.55;3.25;;;;;;;;;;10270232;28;20083;-61
2022/04/11 02:45:42;;;;;;;3.22;3.03;;;;;;;;;;10262895;28;20085;-61
2022/04/11 02:50:44;;;;;;;3.50;3.22;;;;;;;;;;10274102;28;20049;-61
2022/04/11 02:55:46;;;;;;;3.47;3.17;;;;;;;;;;10280255;28;20088;-61
2022/04/11 03:00:45;;;;;;;3.65;3.35;;;;;;;;;;10273359;28;20080;-61
2022/04/11 03:05:45;;;;;;;4.80;4.40;;;;;;;;;;10265869;28;20092;-61
2022/04/11 03:10:44;;;;;;;3.00;2.70;;;;;;;;;;10269473;28;20073;-61
2022/04/11 03:15:42;;;;;;;4.18;3.78;;;;;;;;;;10268695;28;20072;-61
2022/04/11 03:20:41;;;;;;;4.00;3.30;;;;;;;;;;10268496;28;20048;-60
2022/04/11 03:25:41;;;;;;;5.10;4.03;;;;;;;;;;10264498;28;20087;-61
2022/04/11 03:30:45;;;;;;;3.67;3.38;;;;;;;;;;10263089;28;20041;-61
2022/04/11 03:35:43;;;;;;;4.03;3.40;;;;;;;;;;10264284;28;20406;-59
2022/04/11 03:40:44;;;;;;;7.40;5.97;;;;;;;;;;10255972;28;20077;-61
2022/04/11 03:45:44;;;;;;;7.35;5.40;;;;;;;;;;10272765;28;20085;-59
2022/04/11 03:50:44;;;;;;;3.95;3.60;;;;;;;;;;10272794;28;20459;-61
2022/04/11 03:55:45;;;;;;;10.43;6.80;;;;;;;;;;10271821;28;20045;-59
2022/04/11 04:00:43;;;;;;;5.07;4.40;;;;;;;;;;10266375;28;20579;-59
2022/04/11 04:05:50;;;;;;;4.80;4.30;;;;;;;;;;10259479;28;20093;-60
2022/04/11 04:10:54;;;;;;;5.47;4.78;;;;;;;;;;10264751;28;20049;-59
2022/04/11 04:15:54;;;;;;;4.07;3.67;;;;;;;;;;10273031;28;20057;-59
2022/04/11 04:20:54;;;;;;;5.45;4.38;;;;;;;;;;10272117;28;20056;-59
2022/04/11 04:25:55;;;;;;;5.03;4.40;;;;;;;;;;10269800;28;20108;-59
2022/04/11 04:30:55;;;;;;;8.18;6.20;;;;;;;;;;10270772;28;20087;-62
2022/04/11 04:35:54;;;;;;;5.68;3.75;;;;;;;;;;10266118;28;20067;-63
2022/04/11 04:40:52;;;;;;;4.32;3.83;;;;;;;;;;10262564;28;20097;-63
2022/04/11 04:45:56;;;;;;;4.82;4.32;;;;;;;;;;10274831;28;20075;-64
2022/04/11 04:51:19;;;;;;;4.32;3.53;;;;;;;;;;10259916;28;20119;-65
2022/04/11 04:56:29;;;;;;;6.45;5.53;;;;;;;;;;10270957;28;20063;-65
2022/04/11 05:01:32;;;;;;;3.47;3.17;;;;;;;;;;10272141;28;20520;-65
2022/04/11 05:06:31;;;;;;;3.00;2.75;;;;;;;;;;10256864;28;20473;-64
2022/04/11 05:11:30;;;;;;;5.72;4.32;;;;;;;;;;10269868;28;20077;-64
2022/04/11 05:16:29;;;;;;;4.80;4.40;;;;;;;;;;10280550;28;20075;-64
2022/04/11 05:21:29;;;;;;;2.90;2.70;;;;;;;;;;10280733;28;20073;-63
2022/04/11 05:26:33;;;;;;;4.40;3.10;;;;;;;;;;10247504;28;20075;-64
2022/04/11 05:31:32;;;;;;;2.53;2.33;;;;;;;;;;10270010;28;20057;-62
2022/04/11 05:36:32;;;;;;;5.78;3.22;;;;;;;;;;10256464;28;20069;-63
2022/04/11 05:41:30;;;;;;;5.18;3.85;;;;;;;;;;10262445;28;20536;-65
2022/04/11 05:46:30;;;;;;;4.28;2.92;;;;;;;;;;10263146;28;20081;-64
2022/04/11 05:51:39;;;;;;;5.88;5.00;;;;;;;;;;10270788;28;20536;-65
2022/04/11 05:56:38;;;;;;;2.67;2.47;;;;;;;;;;10261402;28;20079;-64
2022/04/11 06:01:41;;;;;;;2.30;2.10;;;;;;;;;;10265452;28;20434;-64
2022/04/11 06:06:42;;;;;;;2.35;2.17;;;;;;;;;;10253125;28;20110;-64
2022/04/11 06:11:41;;;;;;;3.63;3.05;;;;;;;;;;10253869;28;20127;-64
2022/04/11 06:16:40;;;;;;;3.47;2.65;;;;;;;;;;10251867;28;20501;-66
2022/04/11 06:21:38;;;;;;;6.13;5.53;;;;;;;;;;10272263;28;20596;-64
2022/04/11 06:26:39;;;;;;;2.90;2.55;;;;;;;;;;10262969;28;20087;-65
2022/04/11 06:31:37;;;;;;;3.60;2.88;;;;;;;;;;10274700;28;20465;-65
2022/04/11 06:36:45;;;;;;;2.50;2.30;;;;;;;;;;10282145;28;20081;-65
2022/04/11 06:41:45;;;;;;;5.75;5.13;;;;;;;;;;10267064;28;20061;-64
2022/04/11 06:46:44;;;;;;;3.50;3.20;;;;;;;;;;10262021;28;20091;-64
2022/04/11 06:51:42;;;;;;;9.82;7.78;;;;;;;;;;10259958;28;20087;-65
2022/04/11 06:56:40;;;;;;;15.27;10.40;;;;;;;;;;10263924;28;20076;-64
2022/04/11 07:01:40;;;;;;;6.50;4.85;;;;;;;;;;10267238;28;20072;-64
2022/04/11 07:06:38;;;;;;;4.63;4.07;;;;;;;;;;10263687;28;20087;-64
2022/04/11 07:11:36;;;;;;;6.07;3.47;;;;;;;;;;10267994;28;20509;-65
2022/04/11 07:16:35;;;;;;;5.85;4.38;;;;;;;;;;10262341;28;20069;-64
2022/04/11 07:21:34;;;;;;;8.27;4.90;;;;;;;;;;10267571;28;20076;-64
2022/04/11 07:26:33;;;;;;;7.40;6.60;;;;;;;;;;10267552;28;20068;-64
2022/04/11 07:31:31;;;;;;;6.25;4.93;;;;;;;;;;10267836;28;20068;-65
2022/04/11 07:36:29;;;;;;;5.13;4.45;;;;;;;;;;10255386;28;20079;-65
2022/04/11 07:41:29;;;;;;;5.55;3.08;;;;;;;;;;10266686;28;20081;-65
2022/04/11 07:46:27;;;;;;;9.48;7.25;;;;;;;;;;10266623;28;20068;-64
2022/04/11 07:51:26;;;;;;;2.95;2.63;;;;;;;;;;10266585;28;20073;-65
2022/04/11 07:56:24;;;;;;;9.27;5.78;;;;;;;;;;10266597;28;20041;-64
2022/04/11 08:01:24;;;;;;;8.38;4.40;;;;;;;;;;10266807;28;20077;-64
2022/04/11 08:06:22;;;;;;;3.53;2.83;;;;;;;;;;10266431;28;20076;-64
2022/04/11 08:11:20;;;;;;;4.13;3.25;;;;;;;;;;10252550;28;20076;-65
2022/04/11 08:16:19;;;;;;;6.85;3.15;;;;;;;;;;10266841;28;20069;-64
2022/04/11 08:21:19;;;;;;;6.55;4.28;;;;;;;;;;10261765;28;20098;-65
2022/04/11 08:26:17;;;;;;;8.32;5.20;;;;;;;;;;10264727;28;20060;-65
2022/04/11 08:31:15;;;;;;;7.03;5.18;;;;;;;;;;10264623;28;20147;-64
2022/04/11 08:36:13;;;;;;;15.50;10.40;;;;;;;;;;10264483;28;20072;-65
2022/04/11 08:41:16;;;;;;;18.50;12.00;;;;;;;;;;10263501;28;20261;-65
2022/04/11 08:46:16;;;;;;;23.25;13.85;;;;;;;;;;10264238;28;20103;-64
2022/04/11 08:51:15;;;;;;;10.43;8.18;;;;;;;;;;10263448;28;20079;-64
2022/04/11 08:56:15;;;;;;;5.55;5.05;;;;;;;;;;10263711;28;20494;-65
2022/04/11 09:01:13;;;;;;;8.75;6.15;;;;;;;;;;10265230;28;20469;-65
2022/04/11 09:06:19;;;;;;;4.35;3.95;;;;;;;;;;10273001;28;20068;-64
2022/04/11 09:11:29;;;;;;;9.63;5.90;;;;;;;;;;10270425;28;20064;-64
2022/04/11 09:16:27;;;;;;;7.20;6.18;;;;;;;;;;10256207;28;20446;-64
2022/04/11 09:21:27;;;;;;;18.70;12.05;;;;;;;;;;10264393;28;20083;-64
2022/04/11 09:26:25;;;;;;;6.82;4.72;;;;;;;;;;10264329;28;20061;-64
2022/04/11 09:31:25;;;;;;;12.25;9.80;;;;;;;;;;10263806;28;20065;-64
2022/04/11 09:36:24;;;;;;;14.10;8.73;;;;;;;;;;10264451;28;20068;-64
2022/04/11 09:41:43;;;;;;;8.38;6.50;;;;;;;;;;10257729;28;20403;-65
2022/04/11 09:46:45;;;;;;;5.82;4.38;;;;;;;;;;10262540;28;20506;-64
2022/04/11 09:52:02;;;;;;;15.98;8.80;;;;;;;;;;10263212;28;20141;-65
2022/04/11 09:57:00;;;;;;;4.10;3.80;;;;;;;;;;10261272;28;20083;-67
2022/04/11 10:02:00;;;;;;;5.25;4.32;;;;;;;;;;10264642;28;20084;-65
2022/04/11 10:06:58;;;;;;;12.95;7.65;;;;;;;;;;10271063;28;20049;-65
2022/04/11 10:11:57;;;;;;;5.13;4.00;;;;;;;;;;10270328;28;20076;-64
2022/04/11 10:16:56;;;;;;;4.38;3.97;;;;;;;;;;10268932;28;20072;-64
2022/04/11 10:21:58;;;;;;;3.90;3.25;;;;;;;;;;10269986;28;20071;-64
2022/04/11 10:26:56;;;;;;;4.43;3.63;;;;;;;;;;10269568;28;20077;-64
2022/04/11 10:32:04;;;;;;;4.95;4.45;;;;;;;;;;10269806;28;20122;-64
2022/04/11 10:37:04;;;;;;;3.03;2.70;;;;;;;;;;10270401;28;20079;-64
2022/04/11 10:42:06;;;;;;;6.20;4.05;;;;;;;;;;10268835;28;20080;-63
2022/04/11 10:47:26;;;;;;;5.57;5.05;;;;;;;;;;10268424;28;20080;-64
2022/04/11 10:52:31;;;;;;;3.78;3.33;;;;;;;;;;10264867;28;20069;-65
2022/04/11 10:57:30;;;;;;;;;;;;;;;;;;10262910;28;20084;-64
2022/04/11 11:02:28;;;;;;;5.72;3.28;;;;;;;;;;10267045;28;19933;-65
2022/04/11 11:07:28;;;;;;;4.18;3.70;;;;;;;;;;10261605;28;20069;-64
2022/04/11 11:12:28;;;;;;;7.10;3.05;;;;;;;;;;10261191;28;20069;-64
2022/04/11 11:17:45;;;;;;;34.95;23.52;;;;;;;;;;10264352;28;20117;-65
2022/04/11 11:22:58;;;;;;;16.60;9.73;;;;;;;;;;10263347;28;20080;-65
2022/04/11 11:27:58;;;;;;;7.45;4.00;;;;;;;;;;10264670;28;20083;-65
2022/04/11 11:33:00;;;;;;;4.93;4.13;;;;;;;;;;10265090;28;20466;-65
2022/04/11 11:38:02;;;;;;;3.25;2.83;;;;;;;;;;10265123;28;20072;-65
2022/04/11 11:43:02;;;;;;;4.53;3.00;;;;;;;;;;10266540;28;20092;-65
2022/04/11 11:48:18;;;;;;;2.60;2.40;;;;;;;;;;10267052;28;20076;-65
2022/04/11 11:53:18;;;;;;;6.10;3.17;;;;;;;;;;10275559;28;20466;-65
2022/04/11 11:58:18;;;;;;;4.00;2.70;;;;;;;;;;10275684;28;20096;-65
2022/04/11 12:08:33;;;;;;;6.80;4.32;;;;;;;;;;10265822;28;20510;-64
2022/04/11 12:13:33;;;;;;;5.20;3.17;;;;;;;;;;10266055;28;20084;-66
2022/04/11 12:18:46;;;;;;;11.73;4.30;;;;;;;;;;10265825;28;20064;-64
2022/04/11 12:23:45;;;;;;;6.20;3.97;;;;;;;;;;10265037;28;20076;-64
2022/04/11 12:28:45;;;;;;;3.90;3.25;;;;;;;;;;10264066;28;20080;-64
2022/04/11 12:33:44;;;;;;;7.57;3.58;;;;;;;;;;10265117;28;20536;-65
2022/04/11 12:38:43;;;;;;;8.10;3.28;;;;;;;;;;10264854;28;20448;-65
2022/04/11 12:43:56;;;;;;;5.50;3.75;;;;;;;;;;10263796;28;20463;-64
2022/04/11 12:48:57;;;;;;;10.05;4.53;;;;;;;;;;10264285;28;20080;-65
2022/04/11 12:54:01;;;;;;;10.55;6.63;;;;;;;;;;10264314;28;20084;-64
2022/04/11 12:58:59;;;;;;;19.10;15.02;;;;;;;;;;10264465;28;20104;-65
2022/04/11 13:03:59;;;;;;;5.75;3.90;;;;;;;;;;10264427;28;20065;-65
2022/04/11 13:08:59;;;;;;;3.40;2.40;;;;;;;;;;10264579;28;20076;-65
2022/04/11 13:13:58;;;;;;;15.73;3.40;;;;;;;;;;10263320;28;20060;-65
2022/04/11 13:18:57;;;;;;;6.55;5.40;;;;;;;;;;10263815;28;20049;-65
2022/04/11 13:23:57;;;;;;;10.68;6.72;;;;;;;;;;10263564;28;20398;-65
2022/04/11 13:28:55;;;;;;;4.45;3.10;;;;;;;;;;10262968;28;20072;-65
2022/04/11 13:33:53;;;;;;;4.97;3.95;;;;;;;;;;10263439;28;20073;-65
2022/04/11 13:38:52;;;;;;;8.85;5.60;;;;;;;;;;10268177;28;20548;-64
2022/04/11 13:43:52;;;;;;;18.23;10.93;;;;;;;;;;10270652;28;20091;-65
2022/04/11 13:48:50;;;;;;;9.88;8.45;;;;;;;;;;10271044;28;20079;-64
2022/04/11 13:53:49;;;;;;;9.07;7.10;;;;;;;;;;10270771;28;20052;-65
2022/04/11 13:58:47;;;;;;;8.93;6.55;;;;;;;;;;10271001;28;20064;-64
2022/04/11 14:03:47;;;;;;;13.68;7.43;;;;;;;;;;10270293;28;20068;-65
2022/04/11 14:08:45;;;;;;;6.43;5.47;;;;;;;;;;10270386;28;20506;-65
2022/04/11 14:13:43;;;;;;;32.22;19.15;;;;;;;;;;10268546;28;20541;-65
2022/04/11 14:18:42;;;;;;;61.88;32.85;;;;;;;;;;10269861;28;20529;-66
2022/04/11 14:23:41;;;;;;;5.35;3.60;;;;;;;;;;10269744;28;20088;-66
2022/04/11 14:28:40;;;;;;;3.33;3.03;;;;;;;;;;10270184;28;20080;-65
2022/04/11 14:33:38;;;;;;;10.32;8.52;;;;;;;;;;10268960;28;20077;-65
2022/04/11 14:38:39;;;;;;;6.63;3.97;;;;;;;;;;10269683;28;20041;-66
2022/04/11 14:43:39;;;;;;;5.32;4.28;;;;;;;;;;10268888;28;20091;-65
2022/04/11 14:48:37;;;;;;;5.80;4.55;;;;;;;;;;10268457;28;20076;-65
2022/04/11 14:53:37;;;;;;;5.80;4.28;;;;;;;;;;10269049;28;20073;-65
2022/04/11 14:58:35;;;;;;;3.97;3.35;;;;;;;;;;10269039;28;20408;-66
2022/04/11 15:03:40;;;;;;;8.48;5.65;;;;;;;;;;10278215;28;20064;-66
2022/04/11 15:08:40;;;;;;;8.32;5.20;;;;;;;;;;10276781;28;20073;-65
2022/04/11 15:13:39;;;;;;;32.72;17.50;;;;;;;;;;10277398;28;20072;-66
2022/04/11 15:18:39;;;;;;;17.45;10.88;;;;;;;;;;10268148;28;20469;-66
2022/04/11 15:23:37;;;;;;;21.60;12.32;;;;;;;;;;10267583;28;20069;-66
2022/04/11 15:28:35;;;;;;;24.45;17.40;;;;;;;;;;10267192;28;20068;-66
2022/04/11 15:33:33;;;;;;;38.60;22.58;;;;;;;;;;10267219;28;20505;-65
2022/04/11 15:38:33;;;;;;;11.85;7.75;;;;;;;;;;10267182;28;20076;-66
2022/04/11 15:43:33;;;;;;;20.92;14.07;;;;;;;;;;10266358;28;20087;-65
2022/04/11 15:48:31;;;;;;;8.55;6.85;;;;;;;;;;10266832;28;20083;-66
2022/04/11 15:53:30;;;;;;;8.93;4.60;;;;;;;;;;10266719;28;20129;-65
2022/04/11 15:58:30;;;;;;;8.88;7.03;;;;;;;;;;10266924;28;20076;-65
2022/04/11 16:03:28;;;;;;;15.02;10.02;;;;;;;;;;10265401;28;20073;-65
2022/04/11 16:08:27;;;;;;;22.75;16.77;;;;;;;;;;10265890;28;20068;-66
2022/04/11 16:13:25;;;;;;;45.17;31.48;;;;;;;;;;10265642;28;20064;-65
2022/04/11 16:18:25;;;;;;;60.72;41.80;;;;;;;;;;10265998;28;20079;-65
2022/04/11 16:23:23;;;;;;;69.68;51.90;;;;;;;;;;10265831;28;20309;-65
2022/04/11 16:28:22;;;;;;;49.83;36.10;;;;;;;;;;10264977;28;20065;-65
2022/04/11 16:33:20;;;;;;;23.05;19.00;;;;;;;;;;10265191;28;20080;-65
2022/04/11 16:38:26;;;;;;;21.08;12.90;;;;;;;;;;10265058;28;20076;-64
2022/04/11 16:43:24;;;;;;;35.25;28.65;;;;;;;;;;10264434;28;20450;-64
2022/04/11 16:48:22;;;;;;;17.63;12.27;;;;;;;;;;10264948;28;20437;-64
2022/04/11 16:53:21;;;;;;;10.77;9.35;;;;;;;;;;10264580;28;20164;-65
2022/04/11 16:58:21;;;;;;;13.32;8.63;;;;;;;;;;10264504;28;20080;-66
2022/04/11 17:03:19;;;;;;;74.53;46.47;;;;;;;;;;10264462;28;20480;-65
2022/04/11 17:08:17;;;;;;;87.53;49.50;;;;;;;;;;10273772;28;20483;-65
2022/04/11 17:13:16;;;;;;;17.40;13.23;;;;;;;;;;10275946;28;20127;-65
2022/04/11 17:18:33;;;;;;;53.65;38.95;;;;;;;;;;10280256;28;20064;-65
2022/04/11 17:23:32;;;;;;;8.63;6.05;;;;;;;;;;10282457;28;20075;-65
2022/04/11 17:28:31;;;;;;;10.77;7.38;;;;;;;;;;10270510;28;20079;-64
2022/04/11 17:33:31;;;;;;;8.50;4.78;;;;;;;;;;10280876;28;20528;-64
2022/04/11 17:38:30;;;;;;;51.85;30.85;;;;;;;;;;10272396;28;20477;-63
2022/04/11 17:43:28;;;;;;;23.83;16.23;;;;;;;;;;10264861;28;20070;-64
2022/04/11 17:48:26;;;;;;;30.58;23.00;;;;;;;;;;10261939;28;20494;-64
2022/04/11 17:53:29;;;;;;;45.72;24.58;;;;;;;;;;10285284;28;20064;-64
2022/04/11 17:58:30;;;;;;;23.60;16.20;;;;;;;;;;10276891;28;20072;-64
2022/04/11 18:03:29;;;;;;;19.52;13.25;;;;;;;;;;10285382;28;20080;-65
2022/04/11 18:08:28;;;;;;;11.38;9.57;;;;;;;;;;10269913;28;20470;-65
2022/04/11 18:13:27;;;;;;;16.05;10.98;;;;;;;;;;10269937;28;20068;-65
2022/04/11 18:18:26;;;;;;;24.75;15.80;;;;;;;;;;10262854;28;20075;-64
2022/04/11 18:23:25;;;;;;;5.28;3.75;;;;;;;;;;10281211;28;20080;-65
2022/04/11 18:33:41;;;;;;;4.38;3.63;;;;;;;;;;10282875;28;20072;-65
2022/04/11 18:38:39;;;;;;;3.10;2.80;;;;;;;;;;10269116;28;20083;-64
2022/04/11 18:43:39;;;;;;;5.93;3.45;;;;;;;;;;10276222;28;20092;-65
2022/04/11 18:48:37;;;;;;;5.93;3.63;;;;;;;;;;10270371;28;20068;-65
2022/04/11 18:53:36;;;;;;;15.93;10.98;;;;;;;;;;10267324;28;20077;-64
2022/04/11 18:58:34;;;;;;;33.35;20.52;;;;;;;;;;10272957;28;20075;-64
2022/04/11 19:03:34;;;;;;;41.90;27.00;;;;;;;;;;10270691;28;20071;-66
2022/04/11 19:08:32;;;;;;;12.93;8.95;;;;;;;;;;10268850;28;20076;-66
2022/04/11 19:13:31;;;;;;;10.82;9.13;;;;;;;;;;10275224;28;20072;-66
2022/04/11 19:18:33;;;;;;;29.95;19.92;;;;;;;;;;10269387;28;20068;-66
2022/04/11 19:23:33;;;;;;;13.15;9.75;;;;;;;;;;10266978;28;20465;-66
2022/04/11 19:28:32;;;;;;;8.43;7.35;;;;;;;;;;10277124;28;20068;-66
2022/04/11 19:33:30;;;;;;;10.55;7.57;;;;;;;;;;10273378;28;20067;-66
2022/04/11 19:38:29;;;;;;;16.85;11.15;;;;;;;;;;10283823;28;20072;-65
2022/04/11 19:43:29;;;;;;;20.00;12.05;;;;;;;;;;10273268;28;20091;-66
2022/04/11 19:53:42;;;;;;;;;;;;;;;;;;10266255;28;20136;-64
2022/04/11 19:58:42;;;;;;;11.90;7.70;;;;;;;;;;10276019;28;19963;-64
2022/04/11 20:03:42;;;;;;;20.75;12.23;;;;;;;;;;10274765;28;20076;-64
2022/04/11 20:08:41;;;;;;;31.52;16.40;;;;;;;;;;10261968;28;20654;-61
2022/04/11 20:13:40;;;;;;;21.88;13.43;;;;;;;;;;10270995;28;20107;-61
2022/04/11 20:18:40;;;;;;;12.38;8.07;;;;;;;;;;10273771;28;20119;-61
2022/04/11 20:23:39;;;;;;;15.27;11.80;;;;;;;;;;10275565;28;20069;-65
2022/04/11 20:28:38;;;;;;;10.13;8.00;;;;;;;;;;10277426;28;20464;-64
2022/04/11 20:33:37;;;;;;;10.20;7.35;;;;;;;;;;10274025;28;20084;-64
2022/04/11 20:38:37;;;;;;;13.23;9.25;;;;;;;;;;10264677;28;20037;-64
2022/04/11 20:43:35;;;;;;;11.98;8.07;;;;;;;;;;10270222;28;20061;-64
2022/04/11 20:48:34;;;;;;;10.07;7.47;;;;;;;;;;10277617;28;20072;-65
2022/04/11 20:53:33;;;;;;;7.43;5.38;;;;;;;;;;10268462;28;20134;-64
2022/04/11 20:58:36;;;;;;;6.18;5.07;;;;;;;;;;10258745;28;20060;-64
2022/04/11 21:03:34;;;;;;;11.27;5.75;;;;;;;;;;10274939;28;20060;-64
2022/04/11 21:08:33;;;;;;;7.13;5.38;;;;;;;;;;10265449;28;20087;-64
2022/04/11 21:13:33;;;;;;;10.57;6.47;;;;;;;;;;10261610;28;20097;-64
2022/04/11 21:18:31;;;;;;;10.10;5.68;;;;;;;;;;10280463;28;20056;-64
2022/04/11 21:23:29;;;;;;;7.38;5.63;;;;;;;;;;10260136;28;20077;-64
2022/04/11 21:28:27;;;;;;;10.10;6.53;;;;;;;;;;10270060;28;20063;-63
2022/04/11 21:33:27;;;;;;;10.65;8.00;;;;;;;;;;10272126;28;20073;-64
2022/04/11 21:38:25;;;;;;;12.20;7.82;;;;;;;;;;10257587;28;20064;-65
2022/04/11 21:43:23;;;;;;;9.00;6.93;;;;;;;;;;10267176;28;20081;-64
2022/04/11 21:48:22;;;;;;;15.45;9.73;;;;;;;;;;10263555;28;20048;-65
2022/04/11 21:53:21;;;;;;;14.45;7.90;;;;;;;;;;10268169;28;20544;-64
2022/04/11 21:58:20;;;;;;;11.43;8.05;;;;;;;;;;10263848;28;20467;-64
2022/04/11 22:03:19;;;;;;;9.60;5.50;;;;;;;;;;10269857;28;20076;-65
2022/04/11 22:08:18;;;;;;;7.35;5.72;;;;;;;;;;10271707;28;20076;-64
2022/04/11 22:13:18;;;;;;;6.07;4.85;;;;;;;;;;10273674;28;20076;-63
2022/04/11 22:18:16;;;;;;;6.00;4.63;;;;;;;;;;10252705;28;20079;-65
2022/04/11 22:23:14;;;;;;;11.88;5.65;;;;;;;;;;10270829;28;20469;-64
2022/04/11 22:28:13;;;;;;;21.92;11.52;;;;;;;;;;10271407;28;20068;-66
2022/04/11 22:33:12;;;;;;;6.13;5.18;;;;;;;;;;10270919;28;20087;-64
2022/04/11 22:38:10;;;;;;;7.20;5.30;;;;;;;;;;10271219;28;20065;-64
2022/04/11 22:43:09;;;;;;;4.65;4.18;;;;;;;;;;10269504;28;20057;-64
2022/04/11 22:48:07;;;;;;;6.82;5.63;;;;;;;;;;10270966;28;20048;-64
2022/04/11 22:53:07;;;;;;;11.38;7.88;;;;;;;;;;10265600;28;20072;-64
2022/04/11 22:58:06;;;;;;;7.70;4.97;;;;;;;;;;10276128;28;20080;-64
2022/04/11 23:03:05;;;;;;;7.03;5.05;;;;;;;;;;10278213;28;20064;-64
2022/04/11 23:08:03;;;;;;;9.75;5.72;;;;;;;;;;10262680;28;20486;-65
2022/04/11 23:13:04;;;;;;;10.85;5.90;;;;;;;;;;10267381;28;20552;-64
2022/04/11 23:18:04;;;;;;;8.10;4.57;;;;;;;;;;10276576;28;20065;-65
2022/04/11 23:23:02;;;;;;;5.97;5.03;;;;;;;;;;10267943;28;20532;-65
2022/04/11 23:28:00;;;;;;;6.05;4.40;;;;;;;;;;10276254;28;20075;-64
2022/04/11 23:33:00;;;;;;;5.05;4.57;;;;;;;;;;10266534;28;20071;-64
2022/04/11 23:37:58;;;;;;;6.22;5.57;;;;;;;;;;10269059;28;20078;-65
2022/04/11 23:42:56;;;;;;;7.95;5.25;;;;;;;;;;10276156;28;20049;-65
2022/04/11 23:47:54;;;;;;;7.35;5.60;;;;;;;;;;10277823;28;20040;-65
2022/04/11 23:52:54;;;;;;;8.90;6.03;;;;;;;;;;10267672;28;20077;-65
2022/04/11 23:57:52;;;;;;;5.20;4.30;;;;;;;;;;10268303;28;20077;-64
